Station: Port Lincoln Airport  

  Atmospheric Gas Attenuation - ITU Rec 676-11   ----------------- dB/100km -----------------
Date Time Temp RH % AH g/m3 Dew Point Wind Direction Speed kph Gust kph Barometer mB Rainfall Since 9am 24GHz 47GHz 76GHz 122GHz 134GHz 241GHz
08/05 12:10 15.2 77 9.99 11.2 22 26 1032.9 0 22.5 28.5 45.7 119.8 116.9 403.3
08/05 12:00 15.8 72 9.69 10.8 22 28 1032.9 0 21.8 27.8 44.1 115.6 112.0 386.0
08/05 11:50 16.3 67 9.29 10.2 20 28 1032.9 0 20.9 27.0 42.2 110.5 105.9 364.8
08/05 11:40 16.4 66 9.21 10 20 24 1033 0 20.7 26.9 41.8 109.5 104.7 360.7
08/05 11:30 16.9 67 9.64 10.7 19 28 1033 0 21.6 27.4 43.3 113.5 109.7 378.3
08/05 11:20 16 68 9.26 10.1 24 26 1033.2 0 20.9 27.1 42.2 110.7 105.9 364.9
08/05 11:10 16.1 69 9.46 10.4 20 30 1033.4 0 21.3 27.4 43.0 112.7 108.5 373.8
08/05 11:00 16.1 69 9.46 10.4 20 26 1033.4 0 21.3 27.4 43.0 112.7 108.5 373.8
08/05 10:50 15.6 73 9.71 10.8 19 24 1033.5 0 21.8 27.9 44.3 116.2 112.6 388.1
08/05 10:40 15.9 70 9.48 10.4 19 24 1033.5 0 21.3 27.5 43.2 113.2 109.0 375.8
08/05 10:30 15.9 69 9.34 10.2 15 19 1033.5 0 21.0 27.2 42.6 111.7 107.2 369.2
08/05 10:20 15.6 73 9.71 10.8 15 17 1033.5 0 21.8 27.9 44.3 116.2 112.6 388.1
08/05 10:10 15.5 71 9.38 10.3 15 19 1033.4 0 21.1 27.4 43.0 112.7 108.2 372.9
08/05 10:00 15.7 71 9.5 10.5 15 24 1033.4 0 21.4 27.6 43.4 113.7 109.6 377.6
08/05 09:50 15.5 70 9.25 10.1 15 17 1033.4 0 20.9 27.2 42.5 111.3 106.5 366.8
08/05 09:40 15.4 70 9.2 10 19 20 1033.3 0 20.8 27.2 42.3 110.9 106.0 364.9
08/05 09:30 15.4 71 9.33 10.2 15 22 1033.2 0 21.0 27.4 42.8 112.3 107.7 371.0
08/05 09:20 15.2 70 9.09 9.8 19 22 1033.1 0 20.5 27.0 42.0 109.9 104.7 360.6
08/05 09:10 15.2 71 9.22 10 13 17 1033 0 20.8 27.2 42.5 111.3 106.5 366.7
08/05 09:00 15.1 71 9.16 9.9 15 20 1032.9 0 20.7 27.2 42.3 110.8 105.8 364.3
08/05 08:50 15 72 9.23 10 17 20 1032.8 0 20.8 27.3 42.6 111.7 106.9 368.1
08/05 08:40 14.9 72 9.18 9.9 11 15 1032.8 0 20.7 27.3 42.5 111.3 106.3 366.2
08/05 08:30 14.7 72 9.07 9.7 13 19 1032.8 0 20.5 27.1 42.1 110.4 105.1 361.9
08/05 08:20 14.6 72 9.01 9.6 13 15 1032.6 0 20.4 27.1 41.9 109.8 104.4 359.5
08/05 08:10 14.5 71 8.83 9.3 13 15 1032.6 0 20.0 26.8 41.2 108.0 102.2 351.5
08/05 08:00 14.3 72 8.85 9.3 13 17 1032.5 0 20.1 26.9 41.4 108.5 102.7 353.3
08/05 07:50 14.2 72 8.79 9.2 13 17 1032.5 0 20.0 26.8 41.2 108.0 102.0 350.9
08/05 07:40 14.2 72 8.79 9.2 13 15 1032.4 0 20.0 26.8 41.2 108.0 102.0 350.9
08/05 07:30 13.9 74 8.87 9.3 11 15 1032.4 0 20.1 27.0 41.7 109.3 103.5 356.0
08/05 07:20 13.8 75 8.94 9.5 11 13 1032.4 0 20.3 27.2 42.0 110.2 104.5 359.8
08/05 07:10 13.8 76 9.06 9.6 11 13 1032.3 0 20.5 27.4 42.5 111.5 106.2 365.5
08/05 07:00 13.8 76 9.06 9.6 13 15 1032.2 0 20.5 27.4 42.5 111.5 106.2 365.4
08/05 06:50 13.8 76 9.06 9.6 11 13 1032.2 0 20.5 27.4 42.5 111.5 106.2 365.4
08/05 06:40 13.8 74 8.82 9.3 13 15 1032.1 0 20.0 27.0 41.5 108.8 102.9 354.0
08/05 06:30 13.8 72 8.58 8.8 11 13 1032.1 0 19.5 26.6 40.6 106.2 99.7 342.8
08/05 06:20 13.6 72 8.47 8.7 11 13 1031.9 0 19.3 26.4 40.2 105.3 98.4 338.4
08/05 06:10 13.6 71 8.36 8.4 15 15 1031.8 0 19.1 26.3 39.8 104.1 97.0 333.3
08/05 06:00 13.6 71 8.36 8.4 13 15 1031.9 0 19.1 26.3 39.8 104.1 97.0 333.3
08/05 05:50 13.5 72 8.42 8.6 9 11 1031.9 0 19.2 26.4 40.1 104.9 97.9 336.5
08/05 05:40 13.6 72 8.47 8.7 11 13 1031.8 0 19.3 26.4 40.2 105.3 98.4 338.4
08/05 05:30 13.7 71 8.41 8.5 11 13 1031.9 0 19.2 26.3 39.9 104.5 97.5 335.2
08/05 05:20 13.9 69 8.27 8.3 11 11 1031.8 0 18.9 26.0 39.2 102.7 95.4 327.8
08/05 05:10 13.9 69 8.27 8.3 11 11 1031.7 0 18.9 26.0 39.2 102.7 95.4 327.8
08/05 05:00 13.9 69 8.27 8.3 13 17 1031.9 0 18.9 26.0 39.3 102.7 95.4 327.9
08/05 04:50 14 69 8.32 8.4 15 17 1031.9 0 19.0 26.1 39.4 103.1 96.0 329.8
08/05 04:40 13.9 69 8.27 8.3 13 17 1031.8 0 18.9 26.0 39.2 102.7 95.4 327.8
08/05 04:30 13.8 71 8.46 8.6 11 13 1031.8 0 19.3 26.4 40.1 104.9 98.1 337.1
08/05 04:20 14 69 8.32 8.4 11 11 1031.8 0 19.0 26.1 39.4 103.1 95.9 329.7
08/05 04:10 14 68 8.2 8.2 11 13 1031.7 0 18.7 25.9 38.9 101.8 94.4 324.2
08/05 04:00 14 68 8.2 8.2 11 15 1031.8 0 18.7 25.9 38.9 101.8 94.4 324.2
08/05 03:50 13.8 70 8.34 8.4 9 11 1031.8 0 19.0 26.2 39.6 103.6 96.5 331.5
08/05 03:40 13.9 70 8.39 8.5 9 11 1031.8 0 19.1 26.2 39.7 104.0 97.0 333.4
08/05 03:30 13.9 70 8.39 8.5 11 13 1031.9 0 19.1 26.2 39.7 104.0 97.0 333.4
08/05 03:20 14.1 68 8.25 8.3 11 11 1031.9 0 18.8 25.9 39.1 102.2 94.9 326.1
08/05 03:10 14 70 8.44 8.6 9 11 1032 0 19.2 26.3 39.9 104.4 97.6 335.3
08/05 03:00 14 70 8.44 8.6 11 15 1032 0 19.2 26.3 39.9 104.4 97.6 335.3
08/05 02:50 14.1 69 8.37 8.5 11 13 1031.9 0 19.1 26.1 39.6 103.5 96.5 331.6
08/05 02:40 14.2 69 8.43 8.6 15 19 1032 0 19.2 26.2 39.8 104.1 97.2 334.0
08/05 02:30 14 69 8.32 8.4 11 15 1031.9 0 19.0 26.1 39.4 103.1 96.0 329.8
08/05 02:20 13.9 69 8.27 8.3 9 11 1031.9 0 18.9 26.0 39.3 102.7 95.4 327.9
08/05 02:10 13.7 69 8.17 8.1 11 13 1032 0 18.7 25.9 39.0 101.9 94.4 324.1
08/05 02:00 13.8 68 8.1 8 13 20 1032 0 18.5 25.8 38.6 101.0 93.3 320.5
08/05 01:50 13.7 68 8.05 7.9 15 15 1032 0 18.4 25.7 38.5 100.6 92.8 318.6
08/05 01:40 13.7 68 8.05 7.9 11 11 1032 0 18.4 25.7 38.5 100.6 92.8 318.6
08/05 01:30 13.8 67 7.98 7.8 11 13 1032 0 18.2 25.6 38.1 99.8 91.7 314.9
08/05 01:20 13.8 67 7.98 7.8 11 11 1032 0 18.2 25.6 38.1 99.8 91.7 314.9
08/05 01:10 14 65 7.84 7.5 11 11 1032.1 0 17.9 25.3 37.5 98.1 89.7 307.8
08/05 01:00 14 65 7.84 7.5 13 17 1032.1 0 17.9 25.3 37.5 98.1 89.7 307.8
08/05 00:50 13.9 66 7.91 7.7 13 15 1032.1 0 18.1 25.5 37.8 98.9 90.7 311.4
08/05 00:40 13.9 66 7.91 7.7 17 20 1032.1 0 18.1 25.5 37.8 98.9 90.7 311.4
08/05 00:30 13.9 66 7.91 7.7 15 20 1032.1 0 18.1 25.5 37.8 98.9 90.7 311.4
08/05 00:20 13.9 67 8.03 7.9 13 17 1032.1 0 18.4 25.7 38.3 100.2 92.3 316.9
08/05 00:10 13.8 68 8.1 8 17 20 1032.1 0 18.5 25.8 38.6 101.1 93.3 320.5
08/05 00:00 13.6 69 8.12 8 9 13 1032.1 0 18.6 25.9 38.8 101.5 93.8 322.2
07/05 23:50 13.5 72 8.42 8.6 6 6 1032.1 0 19.2 26.4 40.1 104.9 97.9 336.6
07/05 23:40 13.5 72 8.42 8.6 7 7 1032.2 0 19.2 26.4 40.1 104.9 97.9 336.6
07/05 23:30 13.6 71 8.36 8.4 9 11 1032.3 0 19.1 26.3 39.8 104.1 97.0 333.4
07/05 23:20 13.6 71 8.36 8.4 11 13 1032.3 0 19.1 26.3 39.8 104.1 97.0 333.4
07/05 23:10 13.7 71 8.41 8.5 11 13 1032.4 0 19.2 26.3 39.9 104.5 97.6 335.3
07/05 23:00 13.7 72 8.53 8.7 11 13 1032.4 0 19.4 26.5 40.4 105.8 99.2 340.9
07/05 22:50 13.8 71 8.46 8.6 11 15 1032.5 0 19.3 26.4 40.1 105.0 98.1 337.3
07/05 22:40 13.8 71 8.46 8.6 15 19 1032.5 0 19.3 26.4 40.1 105.0 98.1 337.3
07/05 22:30 13.8 71 8.46 8.6 17 24 1032.7 0 19.3 26.4 40.1 105.0 98.1 337.3
07/05 22:20 13.7 72 8.53 8.7 17 20 1032.7 0 19.4 26.5 40.4 105.9 99.2 341.0
07/05 22:10 13.4 75 8.72 9.1 7 9 1032.7 0 19.8 26.9 41.4 108.3 102.1 351.3
07/05 22:00 13.6 74 8.71 9.1 9 13 1032.7 0 19.8 26.9 41.2 108.0 101.7 349.9
07/05 21:50 13.6 73 8.59 8.9 9 11 1032.7 0 19.6 26.7 40.7 106.7 100.1 344.3
07/05 21:40 13.7 72 8.53 8.7 13 15 1032.8 0 19.4 26.5 40.4 105.9 99.2 341.0
07/05 21:30 13.6 72 8.47 8.7 15 20 1032.8 0 19.3 26.5 40.2 105.4 98.5 338.7
07/05 21:20 13.6 72 8.47 8.7 17 20 1032.9 0 19.3 26.5 40.3 105.4 98.5 338.7
07/05 21:10 13.8 68 8.1 8 19 20 1032.9 0 18.5 25.8 38.7 101.1 93.4 320.7
07/05 21:00 13.8 66 7.86 7.6 17 20 1032.8 0 18.0 25.4 37.7 98.6 90.2 309.7
07/05 20:50 13.6 65 7.65 7.2 17 19 1032.8 0 17.6 25.2 37.0 96.6 87.7 300.9
07/05 20:40 13.7 64 7.58 7 11 13 1032.8 0 17.4 25.0 36.7 95.8 86.7 297.3
07/05 20:30 13.6 65 7.65 7.2 11 15 1032.8 0 17.6 25.2 37.0 96.6 87.7 300.9
07/05 20:20 13.7 65 7.7 7.2 11 13 1032.7 0 17.7 25.2 37.1 97.0 88.3 302.7
07/05 20:10 13.8 64 7.63 7.1 13 15 1032.7 0 17.5 25.1 36.8 96.2 87.2 299.2
07/05 20:00 13.8 64 7.63 7.1 13 19 1032.8 0 17.5 25.1 36.8 96.2 87.2 299.2
07/05 19:50 13.8 64 7.63 7.1 11 13 1032.8 0 17.5 25.1 36.8 96.2 87.2 299.2
07/05 19:40 13.8 66 7.86 7.6 11 13 1032.8 0 18.0 25.4 37.7 98.6 90.2 309.7

Last Refresh: 08-May-2026 12:10:21

Bureau of Meteorology